createdAt,value
2023-03-12T00:02:16.338Z,3.13
2023-03-12T00:04:56.181Z,1.83
2023-03-12T00:07:23.422Z,1.95
2023-03-12T00:09:50.745Z,1.08
2023-03-12T00:12:17.622Z,1.08
2023-03-12T00:14:44.566Z,2.60
2023-03-12T00:17:11.713Z,2.22
2023-03-12T00:19:39.060Z,1.85
2023-03-12T00:22:05.993Z,2.50
2023-03-12T00:24:33.158Z,1.55
2023-03-12T00:27:00.096Z,1.85
2023-03-12T00:29:27.151Z,1.95
2023-03-12T00:31:56.953Z,1.80
2023-03-12T00:34:23.936Z,1.75
2023-03-12T00:36:50.760Z,2.17
2023-03-12T00:39:17.508Z,1.50
2023-03-12T00:41:44.396Z,0.85
2023-03-12T00:44:11.152Z,1.88
2023-03-12T00:46:38.384Z,3.30
2023-03-12T00:49:05.348Z,1.55
2023-03-12T00:51:32.295Z,2.40
2023-03-12T00:53:59.241Z,2.22
2023-03-12T00:56:29.586Z,4.13
2023-03-12T00:58:56.888Z,1.25
2023-03-12T01:01:24.116Z,1.95
2023-03-12T01:03:54.551Z,1.50
2023-03-12T01:06:22.597Z,1.08
2023-03-12T01:14:26.769Z,3.50
2023-03-12T01:14:27.314Z,3.80
2023-03-12T01:19:27.736Z,0.50
2023-03-12T01:21:55.096Z,1.92
2023-03-12T01:24:26.728Z,1.00
2023-03-12T01:26:53.779Z,1.73
2023-03-12T01:29:20.721Z,1.40
2023-03-12T01:31:47.703Z,1.65
2023-03-12T01:34:15.190Z,0.73
2023-03-12T01:36:42.146Z,2.20
2023-03-12T01:39:09.195Z,2.17
2023-03-12T01:41:40.103Z,2.40
2023-03-12T01:44:08.989Z,1.17
2023-03-12T01:46:46.233Z,2.15
2023-03-12T01:49:26.418Z,1.15
2023-03-12T01:52:04.296Z,0.93
2023-03-12T01:54:41.524Z,2.85
2023-03-12T01:57:16.980Z,1.52
2023-03-12T02:00:03.931Z,1.00
2023-03-12T02:02:52.601Z,1.67
2023-03-12T02:06:04.784Z,1.55
2023-03-12T02:08:46.811Z,2.05
2023-03-12T02:11:15.045Z,1.23
2023-03-12T02:14:05.278Z,3.35
2023-03-12T02:16:35.428Z,3.22
2023-03-12T02:19:33.520Z,4.60
2023-03-12T02:22:04.639Z,1.30
2023-03-12T02:24:48.031Z,0.63
2023-03-12T02:27:25.519Z,1.15
2023-03-12T02:33:07.436Z,1.40
2023-03-12T02:37:24.441Z,5.10
2023-03-12T02:38:59.285Z,4.35
2023-03-12T02:42:14.142Z,1.23
2023-03-12T02:45:08.468Z,3.80
2023-03-12T02:47:35.159Z,0.85
2023-03-12T02:50:42.748Z,1.33
2023-03-12T02:53:09.796Z,2.78
2023-03-12T02:55:38.231Z,2.03
2023-03-12T02:58:08.626Z,1.73
2023-03-12T03:00:37.063Z,1.60
2023-03-12T03:03:09.820Z,1.95
2023-03-12T03:05:37.823Z,1.50
2023-03-12T03:08:05.989Z,2.05
2023-03-12T03:13:00.060Z,2.03
2023-03-12T03:15:27.626Z,3.25
2023-03-12T03:17:54.857Z,4.25
2023-03-12T03:20:23.331Z,0.85
2023-03-12T03:22:58.604Z,1.85
2023-03-12T03:31:44.695Z,1.35
2023-03-12T03:34:12.697Z,2.10
2023-03-12T03:36:39.688Z,3.28
2023-03-12T03:39:06.495Z,1.67
2023-03-12T03:41:33.330Z,1.67
2023-03-12T03:44:00.380Z,0.70
2023-03-12T03:46:27.486Z,2.67
2023-03-12T03:48:54.792Z,1.27
2023-03-12T03:51:21.963Z,2.13
2023-03-12T03:53:49.117Z,1.65
2023-03-12T03:56:17.116Z,1.17
2023-03-12T04:01:15.644Z,1.85
2023-03-12T04:03:42.604Z,2.22
2023-03-12T04:06:10.777Z,0.67
2023-03-12T04:08:42.739Z,1.38
2023-03-12T04:11:16.816Z,3.33
2023-03-12T04:14:06.191Z,1.40
2023-03-12T04:16:33.304Z,2.60
2023-03-12T04:19:00.322Z,2.15
2023-03-12T04:21:49.160Z,1.47
2023-03-12T04:24:44.468Z,1.00
2023-03-12T04:27:49.703Z,2.55
2023-03-12T04:30:29.864Z,0.98
2023-03-12T04:38:20.577Z,1.00
2023-03-12T04:40:47.848Z,0.60
2023-03-12T04:43:16.763Z,1.95
2023-03-12T04:45:43.452Z,1.80
2023-03-12T04:48:10.230Z,2.03
2023-03-12T04:50:47.723Z,2.05
2023-03-12T04:53:27.536Z,0.95
2023-03-12T04:55:55.063Z,3.30
2023-03-12T04:58:23.038Z,1.55
2023-03-12T05:05:46.336Z,1.13
2023-03-12T05:08:14.831Z,3.70
2023-03-12T05:10:48.788Z,4.95
2023-03-12T05:13:23.754Z,1.98
2023-03-12T05:15:53.187Z,0.88
2023-03-12T05:18:21.598Z,1.02
2023-03-12T05:21:08.958Z,0.77
2023-03-12T05:23:37.148Z,2.15
2023-03-12T05:26:16.171Z,1.80
2023-03-12T05:28:43.224Z,0.68
2023-03-12T05:31:11.943Z,1.80
2023-03-12T05:33:39.476Z,2.40
2023-03-12T05:36:07.604Z,0.55
2023-03-12T05:38:35.418Z,0.57
2023-03-12T05:41:02.604Z,1.27
2023-03-12T05:43:29.980Z,0.85
2023-03-12T05:46:02.863Z,1.70
2023-03-12T05:48:31.013Z,2.30
2023-03-12T05:50:58.349Z,1.20
2023-03-12T05:53:34.061Z,2.67
2023-03-12T05:56:21.866Z,1.60
2023-03-12T05:58:50.095Z,2.10
2023-03-12T06:01:51.245Z,1.40
2023-03-12T06:04:58.192Z,1.33
2023-03-12T06:07:25.329Z,1.80
2023-03-12T06:10:01.119Z,2.15
2023-03-12T06:12:36.106Z,6.60
2023-03-12T06:19:00.725Z,5.82
2023-03-12T06:24:31.137Z,2.00
2023-03-12T06:26:57.902Z,3.83
2023-03-12T06:29:24.768Z,1.25
2023-03-12T06:31:52.593Z,0.88
2023-03-12T06:34:20.572Z,3.28
2023-03-12T06:37:10.474Z,2.45
2023-03-12T06:39:46.195Z,1.40
2023-03-12T06:42:28.389Z,1.63
2023-03-12T06:51:42.496Z,2.25
2023-03-12T06:54:23.551Z,1.77
2023-03-12T06:56:58.252Z,2.22
2023-03-12T06:59:33.447Z,2.15
2023-03-12T07:02:27.170Z,2.70
2023-03-12T07:05:11.143Z,1.60
2023-03-12T07:07:52.534Z,2.50
2023-03-12T07:10:36.876Z,1.95
2023-03-12T07:13:54.366Z,2.15
2023-03-12T07:19:26.193Z,3.63
2023-03-12T07:20:49.033Z,2.53
2023-03-12T07:25:15.825Z,3.42
2023-03-12T07:28:26.569Z,4.70
2023-03-12T07:30:54.015Z,4.25
2023-03-12T07:33:40.633Z,4.53
2023-03-12T07:39:13.748Z,2.25
2023-03-12T07:41:41.787Z,0.93
2023-03-12T07:46:51.666Z,1.67
2023-03-12T07:49:35.390Z,3.60
2023-03-12T07:52:13.204Z,2.35
2023-03-12T07:54:59.387Z,0.93
2023-03-12T07:57:52.795Z,2.15
2023-03-12T08:00:32.141Z,2.78
2023-03-12T08:03:07.645Z,2.15
2023-03-12T08:05:40.893Z,1.17
2023-03-12T08:08:15.504Z,1.77
2023-03-12T08:10:44.094Z,1.90
2023-03-12T08:15:54.455Z,1.48
2023-03-12T08:18:27.017Z,1.70
2023-03-12T08:21:59.763Z,1.55
2023-03-12T08:24:26.514Z,1.40
2023-03-12T08:26:53.535Z,1.35
2023-03-12T08:29:27.628Z,1.33
2023-03-12T08:33:15.436Z,2.30
2023-03-12T08:36:14.461Z,1.85
2023-03-12T08:38:41.497Z,1.52
2023-03-12T08:41:12.703Z,1.60
2023-03-12T08:44:00.892Z,0.77
2023-03-12T08:46:35.617Z,2.00
2023-03-12T08:49:31.254Z,1.63
2023-03-12T08:52:07.361Z,2.03
2023-03-12T08:54:38.722Z,2.38
2023-03-12T08:57:22.922Z,3.22
2023-03-12T09:00:00.753Z,4.63
2023-03-12T09:02:28.665Z,1.95
2023-03-12T09:04:58.744Z,1.67
2023-03-12T09:07:31.825Z,3.53
2023-03-12T09:10:04.360Z,1.38
2023-03-12T09:12:40.911Z,3.00
2023-03-12T09:15:16.272Z,1.77
2023-03-12T09:17:43.403Z,2.15
2023-03-12T09:20:19.670Z,2.17
2023-03-12T09:22:49.589Z,2.75
2023-03-12T09:25:21.142Z,2.20
2023-03-12T09:27:51.384Z,1.83
2023-03-12T09:30:22.716Z,2.33
2023-03-12T09:32:50.096Z,2.55
2023-03-12T09:35:20.297Z,2.50
2023-03-12T09:37:51.535Z,1.55
2023-03-12T09:40:23.384Z,1.92
2023-03-12T09:43:01.071Z,1.98
2023-03-12T09:45:45.484Z,2.15
2023-03-12T09:48:24.668Z,1.88
2023-03-12T09:50:52.647Z,1.98
2023-03-12T09:53:48.426Z,1.02
2023-03-12T09:56:19.136Z,2.25
2023-03-12T09:59:11.154Z,1.13
2023-03-12T10:01:44.727Z,2.47
2023-03-12T10:04:59.525Z,1.30
2023-03-12T10:07:49.671Z,1.42
2023-03-12T10:10:38.620Z,0.88
2023-03-12T10:13:36.743Z,1.38
2023-03-12T10:16:33.324Z,1.42
2023-03-12T10:19:22.067Z,1.00
2023-03-12T10:22:16.860Z,1.95
2023-03-12T10:24:58.675Z,1.67
2023-03-12T10:27:54.594Z,3.95
2023-03-12T10:30:48.708Z,1.80
2023-03-12T10:33:20.737Z,2.88
2023-03-12T10:35:57.121Z,1.23
2023-03-12T10:38:45.654Z,2.30
2023-03-12T10:41:34.794Z,2.63
2023-03-12T10:44:09.228Z,1.70
2023-03-12T10:46:57.711Z,7.60
2023-03-12T10:49:54.298Z,2.80
2023-03-12T10:52:26.028Z,2.42
2023-03-12T10:54:54.835Z,2.53
2023-03-12T10:57:40.546Z,1.48
2023-03-12T11:00:13.848Z,1.50
2023-03-12T11:02:46.624Z,1.90
2023-03-12T11:05:22.507Z,4.05
2023-03-12T11:07:49.849Z,2.10
2023-03-12T11:10:47.812Z,3.53
2023-03-12T11:13:40.898Z,3.45
2023-03-12T11:16:17.001Z,1.95
2023-03-12T11:19:17.372Z,2.90
2023-03-12T11:22:01.513Z,3.30
2023-03-12T11:24:30.207Z,1.02
2023-03-12T11:27:08.024Z,1.38
2023-03-12T11:32:35.830Z,2.22
2023-03-12T11:35:11.804Z,2.17
2023-03-12T11:38:16.541Z,1.25
2023-03-12T11:40:53.144Z,1.58
2023-03-12T11:43:43.359Z,0.50
2023-03-12T11:46:57.612Z,1.77
2023-03-12T11:49:32.861Z,3.42
2023-03-12T11:52:47.763Z,3.25
2023-03-12T11:55:45.611Z,2.22
2023-03-12T11:58:53.905Z,1.70
2023-03-12T12:01:26.831Z,0.95
2023-03-12T12:04:24.090Z,0.80
2023-03-12T12:09:44.607Z,7.13
2023-03-12T12:12:15.354Z,2.05
2023-03-12T12:15:07.635Z,2.50
2023-03-12T12:18:32.375Z,1.25
2023-03-12T12:21:27.149Z,1.50
2023-03-12T12:24:06.460Z,3.65
2023-03-12T12:30:19.620Z,2.10
2023-03-12T12:33:34.960Z,1.13
2023-03-12T12:36:11.258Z,1.45
2023-03-12T12:39:27.376Z,1.98
2023-03-12T12:41:59.926Z,1.65
2023-03-12T12:44:37.414Z,2.45
2023-03-12T12:47:07.004Z,1.55
2023-03-12T12:49:43.588Z,1.30
2023-03-12T12:52:14.183Z,3.28
2023-03-12T12:55:06.920Z,1.45
2023-03-12T12:57:34.067Z,3.60
2023-03-12T13:00:42.656Z,1.45
2023-03-12T13:03:19.693Z,1.42
2023-03-12T13:05:54.642Z,1.17
2023-03-12T13:08:39.789Z,2.13
2023-03-12T13:11:24.896Z,0.70
2023-03-12T13:14:11.720Z,2.30
2023-03-12T13:19:55.665Z,1.05
2023-03-12T13:23:12.925Z,0.68
2023-03-12T13:25:56.504Z,2.22
2023-03-12T13:28:26.586Z,1.98
2023-03-12T13:30:55.373Z,1.58
2023-03-12T13:33:43.711Z,1.63
2023-03-12T13:36:16.681Z,2.10
2023-03-12T13:39:00.892Z,2.20
2023-03-12T13:41:55.347Z,1.88
2023-03-12T13:44:32.602Z,4.85
2023-03-12T13:47:12.400Z,3.75
2023-03-12T13:49:48.391Z,1.95
2023-03-12T13:52:26.869Z,2.38
2023-03-12T13:55:25.046Z,17.55
2023-03-12T13:58:08.329Z,5.05
2023-03-12T14:00:47.198Z,8.20
2023-03-12T14:03:27.384Z,3.70
2023-03-12T14:06:17.820Z,1.30
2023-03-12T14:09:00.961Z,2.05
2023-03-12T14:11:40.448Z,3.80
2023-03-12T14:14:30.231Z,2.22
2023-03-12T14:17:11.061Z,2.33
2023-03-12T14:20:12.988Z,3.53
2023-03-12T14:22:45.666Z,4.78
2023-03-12T14:25:47.409Z,1.95
2023-03-12T14:28:26.180Z,4.93
2023-03-12T14:30:57.414Z,2.53
2023-03-12T14:34:00.522Z,1.95
2023-03-12T14:37:17.000Z,3.42
2023-03-12T14:39:55.513Z,2.00
2023-03-12T14:53:38.553Z,6.68
2023-03-12T14:59:22.401Z,2.53
2023-03-12T15:02:07.083Z,1.92
2023-03-12T15:04:35.405Z,5.72
2023-03-12T15:07:06.836Z,1.35
2023-03-12T15:09:37.119Z,1.70
2023-03-12T15:12:08.937Z,2.47
2023-03-12T15:14:41.767Z,1.77
2023-03-12T15:17:18.832Z,1.83
2023-03-12T15:20:15.735Z,2.25
2023-03-12T15:22:44.115Z,3.08
2023-03-12T15:25:27.291Z,2.22
2023-03-12T15:28:25.523Z,7.07
2023-03-12T15:31:47.316Z,12.40
2023-03-12T15:34:32.422Z,23.60
2023-03-12T15:37:20.922Z,13.10
2023-03-12T15:40:09.709Z,6.93
2023-03-12T15:42:48.419Z,4.88
2023-03-12T15:45:30.074Z,1.95
2023-03-12T15:48:01.992Z,4.45
2023-03-12T15:50:41.559Z,12.98
2023-03-12T15:53:15.539Z,9.70
2023-03-12T15:55:55.105Z,5.47
2023-03-12T15:58:30.914Z,4.07
2023-03-12T16:01:14.036Z,2.55
2023-03-12T16:03:43.644Z,2.63
2023-03-12T16:06:19.765Z,2.35
2023-03-12T16:09:01.122Z,3.85
2023-03-12T16:11:31.858Z,1.70
2023-03-12T16:14:13.899Z,2.50
2023-03-12T16:16:48.114Z,1.25
2023-03-12T16:19:17.118Z,14.07
2023-03-12T16:21:45.513Z,20.05
2023-03-12T16:24:16.758Z,32.63
2023-03-12T16:26:51.902Z,43.25
2023-03-12T16:29:21.061Z,28.40
2023-03-12T16:32:51.341Z,15.25
2023-03-12T16:35:22.829Z,9.73
2023-03-12T16:37:50.959Z,13.60
2023-03-12T16:40:30.928Z,6.45
2023-03-12T16:43:04.175Z,3.53
2023-03-12T16:45:41.800Z,3.67
2023-03-12T16:48:27.276Z,2.60
2023-03-12T16:52:07.711Z,2.30
2023-03-12T16:54:53.156Z,1.95
2023-03-12T16:57:34.346Z,1.15
2023-03-12T17:03:40.812Z,0.88
2023-03-12T17:06:15.222Z,2.47
2023-03-12T17:08:43.466Z,1.15
2023-03-12T17:12:12.453Z,16.30
2023-03-12T17:14:24.070Z,15.50
2023-03-12T17:16:56.402Z,12.75
2023-03-12T17:19:28.810Z,9.77
2023-03-12T17:21:59.541Z,12.15
2023-03-12T17:27:26.601Z,25.50
2023-03-12T17:29:54.427Z,21.63
2023-03-12T17:32:21.998Z,16.33
2023-03-12T17:35:06.506Z,10.60
2023-03-12T17:37:34.993Z,5.43
2023-03-12T17:40:19.644Z,7.00
2023-03-12T17:42:47.692Z,6.15
2023-03-12T17:47:42.711Z,4.32
2023-03-12T17:50:10.391Z,2.50
2023-03-12T17:52:38.215Z,4.05
2023-03-12T17:55:24.647Z,3.03
2023-03-12T17:57:52.403Z,4.38
2023-03-12T18:00:30.275Z,1.95
2023-03-12T18:05:26.821Z,2.67
2023-03-12T18:07:55.377Z,10.82
2023-03-12T18:10:22.670Z,28.60
2023-03-12T18:12:50.004Z,30.23
2023-03-12T18:15:17.925Z,14.90
2023-03-12T18:17:56.955Z,14.98
2023-03-12T18:20:37.498Z,15.63
2023-03-12T18:26:20.410Z,11.63
2023-03-12T18:28:48.705Z,10.60
2023-03-12T18:31:29.314Z,6.35
2023-03-12T18:34:22.345Z,13.23
2023-03-12T18:36:50.275Z,9.48
2023-03-12T18:41:59.225Z,12.57
2023-03-12T18:44:31.670Z,7.38
2023-03-12T18:47:13.310Z,3.63
2023-03-12T18:49:43.662Z,9.02
2023-03-12T18:52:15.644Z,5.05
2023-03-12T18:54:52.080Z,8.45
2023-03-12T18:57:24.908Z,5.55
2023-03-12T18:59:52.243Z,6.80
2023-03-12T19:02:25.105Z,4.53
2023-03-12T19:04:56.124Z,5.07
2023-03-12T19:07:28.368Z,8.95
2023-03-12T19:10:06.477Z,9.80
2023-03-12T19:12:45.397Z,7.35
2023-03-12T19:15:18.344Z,6.30
2023-03-12T19:17:45.958Z,4.93
2023-03-12T19:20:14.657Z,8.00
2023-03-12T19:23:15.631Z,7.57
2023-03-12T19:25:46.710Z,7.65
2023-03-12T19:28:18.850Z,5.95
2023-03-12T19:31:08.128Z,6.57
2023-03-12T19:33:36.524Z,6.80
2023-03-12T19:36:35.269Z,9.18
2023-03-12T19:39:23.155Z,6.15
2023-03-12T19:41:53.272Z,7.07
2023-03-12T19:44:23.833Z,5.38
2023-03-12T19:47:02.411Z,4.95
2023-03-12T19:49:45.936Z,7.22
2023-03-12T19:52:16.822Z,7.30
2023-03-12T19:54:51.663Z,6.35
2023-03-12T19:57:37.144Z,7.13
2023-03-12T20:00:10.274Z,6.82
2023-03-12T20:02:53.156Z,11.13
2023-03-12T20:05:47.353Z,8.00
2023-03-12T20:08:27.130Z,8.77
2023-03-12T20:13:53.298Z,5.47
2023-03-12T20:16:24.133Z,10.75
2023-03-12T20:18:55.115Z,7.35
2023-03-12T20:21:25.959Z,12.10
2023-03-12T20:24:02.281Z,9.90
2023-03-12T20:29:48.580Z,8.10
2023-03-12T20:32:23.317Z,7.72
2023-03-12T20:35:23.532Z,9.68
2023-03-12T20:37:56.557Z,6.35
2023-03-12T20:40:27.182Z,7.85
2023-03-12T20:43:06.769Z,6.90
2023-03-12T20:45:39.914Z,4.95
2023-03-12T20:48:11.719Z,8.00
2023-03-12T20:50:54.021Z,6.88
2023-03-12T20:54:11.251Z,7.55
2023-03-12T20:57:01.105Z,4.95
2023-03-12T20:59:31.522Z,11.43
2023-03-12T21:02:04.899Z,6.03
2023-03-12T21:04:32.927Z,7.38
2023-03-12T21:09:40.537Z,5.38
2023-03-12T21:12:21.956Z,6.70
2023-03-12T21:14:55.068Z,6.55
2023-03-12T21:18:08.284Z,7.72
2023-03-12T21:21:05.618Z,4.40
2023-03-12T21:23:45.797Z,5.70
2023-03-12T21:26:20.928Z,8.63
2023-03-12T21:28:53.599Z,7.82
2023-03-12T21:31:26.374Z,9.38
2023-03-12T21:34:01.899Z,7.00
2023-03-12T21:36:31.427Z,9.23
2023-03-12T21:42:20.951Z,5.55
2023-03-12T21:44:55.262Z,9.20
2023-03-12T21:47:38.058Z,7.75
2023-03-12T21:50:27.873Z,6.03
2023-03-12T21:53:11.647Z,9.00
2023-03-12T21:59:04.218Z,5.80
2023-03-12T22:01:54.590Z,7.72
2023-03-12T22:04:26.382Z,5.65
2023-03-12T22:07:19.269Z,6.03
2023-03-12T22:13:08.289Z,8.25
2023-03-12T22:15:44.640Z,6.32
2023-03-12T22:18:16.720Z,3.88
2023-03-12T22:21:10.545Z,4.28
2023-03-12T22:23:59.978Z,6.13
2023-03-12T22:27:12.306Z,5.95
2023-03-12T22:32:27.123Z,5.93
2023-03-12T22:35:14.421Z,6.45
2023-03-12T22:37:49.068Z,7.07
2023-03-12T22:40:26.775Z,6.10
2023-03-12T22:42:59.902Z,6.40
2023-03-12T22:46:04.532Z,8.40
2023-03-12T22:48:51.752Z,6.13
2023-03-12T22:51:44.913Z,6.07
2023-03-12T23:00:30.807Z,3.67
2023-03-12T23:03:24.907Z,7.05
2023-03-12T23:06:00.616Z,2.55
2023-03-12T23:09:20.023Z,2.90
2023-03-12T23:12:13.294Z,4.03
2023-03-12T23:14:43.899Z,2.63
2023-03-12T23:17:12.029Z,2.88
2023-03-12T23:20:26.734Z,2.58
2023-03-12T23:22:54.619Z,7.85
2023-03-12T23:25:27.960Z,3.55
2023-03-12T23:27:55.412Z,5.50
2023-03-12T23:30:35.634Z,2.72
2023-03-12T23:33:17.492Z,4.00
2023-03-12T23:36:17.479Z,4.32
2023-03-12T23:39:00.525Z,4.45
2023-03-12T23:48:23.689Z,5.38
2023-03-12T23:50:56.555Z,3.65
2023-03-12T23:53:38.093Z,5.35
2023-03-12T23:58:57.150Z,2.85
